sensor_id;sensor_type;location;lat;lon;timestamp;pressure;altitude;pressure_sealevel;temperature;humidity
17254;BME280;32542;52.832;13.816;2023-02-18T00:02:14;101212.38;;;21.56;49.48
17254;BME280;32542;52.832;13.816;2023-02-18T00:05:17;101205.28;;;21.55;49.51
17254;BME280;32542;52.832;13.816;2023-02-18T00:08:20;101202.63;;;21.55;49.55
17254;BME280;32542;52.832;13.816;2023-02-18T00:11:23;101214.22;;;21.54;49.45
17254;BME280;32542;52.832;13.816;2023-02-18T00:14:27;101208.97;;;21.52;49.45
17254;BME280;32542;52.832;13.816;2023-02-18T00:17:31;101194.78;;;21.52;49.51
17254;BME280;32542;52.832;13.816;2023-02-18T00:20:34;101205.44;;;21.52;49.47
17254;BME280;32542;52.832;13.816;2023-02-18T00:23:38;101203.69;;;21.51;49.51
17254;BME280;32542;52.832;13.816;2023-02-18T00:26:44;101197.47;;;21.50;49.44
17254;BME280;32542;52.832;13.816;2023-02-18T00:29:49;101199.31;;;21.50;49.45
17254;BME280;32542;52.832;13.816;2023-02-18T00:32:52;101202.88;;;21.49;49.37
17254;BME280;32542;52.832;13.816;2023-02-18T00:36:01;101198.50;;;21.48;49.43
17254;BME280;32542;52.832;13.816;2023-02-18T00:39:06;101195.91;;;21.46;49.32
17254;BME280;32542;52.832;13.816;2023-02-18T00:42:09;101199.44;;;21.47;49.35
17254;BME280;32542;52.832;13.816;2023-02-18T00:45:14;101213.69;;;21.46;49.31
17254;BME280;32542;52.832;13.816;2023-02-18T00:48:17;101206.63;;;21.45;49.35
17254;BME280;32542;52.832;13.816;2023-02-18T00:51:21;101224.41;;;21.44;49.26
17254;BME280;32542;52.832;13.816;2023-02-18T00:54:26;101234.22;;;21.44;49.32
17254;BME280;32542;52.832;13.816;2023-02-18T00:57:28;101230.75;;;21.42;49.37
17254;BME280;32542;52.832;13.816;2023-02-18T01:00:33;101236.88;;;21.44;49.41
17254;BME280;32542;52.832;13.816;2023-02-18T01:03:37;101232.56;;;21.41;49.30
17254;BME280;32542;52.832;13.816;2023-02-18T01:06:41;101241.41;;;21.42;49.41
17254;BME280;32542;52.832;13.816;2023-02-18T01:09:44;101229.88;;;21.41;49.31
17254;BME280;32542;52.832;13.816;2023-02-18T01:12:47;101229.88;;;21.41;49.20
17254;BME280;32542;52.832;13.816;2023-02-18T01:15:52;101238.75;;;21.42;49.34
17254;BME280;32542;52.832;13.816;2023-02-18T01:18:55;101244.13;;;21.40;49.25
17254;BME280;32542;52.832;13.816;2023-02-18T01:22:00;101245.06;;;21.39;49.26
17254;BME280;32542;52.832;13.816;2023-02-18T01:25:03;101245.91;;;21.40;49.16
17254;BME280;32542;52.832;13.816;2023-02-18T01:28:07;101252.19;;;21.39;49.25
17254;BME280;32542;52.832;13.816;2023-02-18T01:31:12;101230.00;;;21.38;49.22
17254;BME280;32542;52.832;13.816;2023-02-18T01:34:15;101244.28;;;21.37;49.13
17254;BME280;32542;52.832;13.816;2023-02-18T01:37:18;101234.53;;;21.36;49.27
17254;BME280;32542;52.832;13.816;2023-02-18T01:40:22;101223.94;;;21.35;49.20
17254;BME280;32542;52.832;13.816;2023-02-18T01:43:27;101239.94;;;21.35;49.26
17254;BME280;32542;52.832;13.816;2023-02-18T01:46:31;101244.31;;;21.36;49.20
17254;BME280;32542;52.832;13.816;2023-02-18T01:49:37;101242.53;;;21.36;49.11
17254;BME280;32542;52.832;13.816;2023-02-18T01:52:40;101257.63;;;21.36;49.10
17254;BME280;32542;52.832;13.816;2023-02-18T01:55:43;101260.31;;;21.36;49.10
17254;BME280;32542;52.832;13.816;2023-02-18T01:58:48;101263.84;;;21.36;49.00
17254;BME280;32542;52.832;13.816;2023-02-18T02:01:53;101257.63;;;21.36;48.97
17254;BME280;32542;52.832;13.816;2023-02-18T02:04:57;101250.59;;;21.35;49.14
17254;BME280;32542;52.832;13.816;2023-02-18T02:08:01;101259.50;;;21.34;49.06
17254;BME280;32542;52.832;13.816;2023-02-18T02:11:15;101259.50;;;21.34;49.07
17254;BME280;32542;52.832;13.816;2023-02-18T02:14:30;101259.50;;;21.34;49.06
17254;BME280;32542;52.832;13.816;2023-02-18T02:17:46;101254.16;;;21.34;49.03
17254;BME280;32542;52.832;13.816;2023-02-18T02:21:12;101260.44;;;21.33;48.86
17254;BME280;32542;52.832;13.816;2023-02-18T02:24:57;101252.47;;;21.33;48.96
17254;BME280;32542;52.832;13.816;2023-02-18T02:28:36;101257.78;;;21.33;49.03
17254;BME280;32542;52.832;13.816;2023-02-18T02:35:20;101247.13;;;21.33;49.14
17254;BME280;32542;52.832;13.816;2023-02-18T02:38:30;101248.91;;;21.32;48.91
17254;BME280;32542;52.832;13.816;2023-02-18T02:41:42;101254.25;;;21.32;48.84
17254;BME280;32542;52.832;13.816;2023-02-18T02:44:53;101251.59;;;21.32;48.88
17254;BME280;32542;52.832;13.816;2023-02-18T02:48:04;101256.03;;;21.32;48.71
17254;BME280;32542;52.832;13.816;2023-02-18T02:51:14;101262.31;;;21.31;48.57
17254;BME280;32542;52.832;13.816;2023-02-18T02:54:22;101259.66;;;21.31;48.58
17254;BME280;32542;52.832;13.816;2023-02-18T02:57:45;101265.88;;;21.30;48.58
17254;BME280;32542;52.832;13.816;2023-02-18T03:01:08;101267.69;;;21.29;48.69
17254;BME280;32542;52.832;13.816;2023-02-18T03:04:33;101267.63;;;21.31;48.69
17254;BME280;32542;52.832;13.816;2023-02-18T03:07:57;101260.56;;;21.30;48.74
17254;BME280;32542;52.832;13.816;2023-02-18T03:11:08;101264.19;;;21.29;48.63
17254;BME280;32542;52.832;13.816;2023-02-18T03:14:16;101269.50;;;21.29;48.68
17254;BME280;32542;52.832;13.816;2023-02-18T03:17:25;101273.00;;;21.29;48.54
17254;BME280;32542;52.832;13.816;2023-02-18T03:20:34;101280.09;;;21.30;48.64
17254;BME280;32542;52.832;13.816;2023-02-18T03:23:44;101280.97;;;21.31;48.58
17254;BME280;32542;52.832;13.816;2023-02-18T03:26:52;101283.47;;;21.34;48.45
17254;BME280;32542;52.832;13.816;2023-02-18T03:29:59;101277.09;;;21.38;48.31
17254;BME280;32542;52.832;13.816;2023-02-18T03:33:06;101285.88;;;21.40;48.34
17254;BME280;32542;52.832;13.816;2023-02-18T03:36:11;101276.06;;;21.42;48.29
17254;BME280;32542;52.832;13.816;2023-02-18T03:39:18;101273.16;;;21.46;48.29
17254;BME280;32542;52.832;13.816;2023-02-18T03:42:24;101274.75;;;21.50;48.08
17254;BME280;32542;52.832;13.816;2023-02-18T03:45:28;101267.53;;;21.54;48.08
17254;BME280;32542;52.832;13.816;2023-02-18T03:48:32;101267.25;;;21.60;47.92
17254;BME280;32542;52.832;13.816;2023-02-18T03:51:34;101285.78;;;21.63;47.91
17254;BME280;32542;52.832;13.816;2023-02-18T03:54:39;101266.13;;;21.65;47.78
17254;BME280;32542;52.832;13.816;2023-02-18T03:57:42;101279.44;;;21.65;47.66
17254;BME280;32542;52.832;13.816;2023-02-18T04:00:45;101283.84;;;21.66;47.77
17254;BME280;32542;52.832;13.816;2023-02-18T04:03:48;101279.41;;;21.67;47.71
17254;BME280;32542;52.832;13.816;2023-02-18T04:06:50;101282.06;;;21.67;47.68
17254;BME280;32542;52.832;13.816;2023-02-18T04:09:55;101277.66;;;21.66;47.84
17254;BME280;32542;52.832;13.816;2023-02-18T04:12:58;101287.44;;;21.65;47.65
17254;BME280;32542;52.832;13.816;2023-02-18T04:16:01;101279.50;;;21.64;47.77
17254;BME280;32542;52.832;13.816;2023-02-18T04:19:04;101298.19;;;21.64;47.79
17254;BME280;32542;52.832;13.816;2023-02-18T04:22:07;101284.91;;;21.62;47.77
17254;BME280;32542;52.832;13.816;2023-02-18T04:25:11;101300.91;;;21.62;47.83
17254;BME280;32542;52.832;13.816;2023-02-18T04:28:15;101301.91;;;21.60;47.83
17254;BME280;32542;52.832;13.816;2023-02-18T04:31:18;101314.34;;;21.59;47.96
17254;BME280;32542;52.832;13.816;2023-02-18T04:34:21;101323.31;;;21.58;47.96
17254;BME280;32542;52.832;13.816;2023-02-18T04:37:24;101321.63;;;21.56;47.88
17254;BME280;32542;52.832;13.816;2023-02-18T04:40:29;101324.28;;;21.56;48.08
17254;BME280;32542;52.832;13.816;2023-02-18T04:43:32;101322.53;;;21.55;47.95
17254;BME280;32542;52.832;13.816;2023-02-18T04:46:34;101314.63;;;21.53;48.01
17254;BME280;32542;52.832;13.816;2023-02-18T04:49:37;101324.41;;;21.53;48.04
17254;BME280;32542;52.832;13.816;2023-02-18T04:52:40;101331.56;;;21.52;47.96
17254;BME280;32542;52.832;13.816;2023-02-18T04:55:48;101322.69;;;21.52;48.03
17254;BME280;32542;52.832;13.816;2023-02-18T04:58:51;101315.59;;;21.51;48.15
17254;BME280;32542;52.832;13.816;2023-02-18T05:01:54;101329.88;;;21.50;48.11
17254;BME280;32542;52.832;13.816;2023-02-18T05:04:57;101320.13;;;21.49;48.00
17254;BME280;32542;52.832;13.816;2023-02-18T05:08:00;101325.47;;;21.49;48.16
17254;BME280;32542;52.832;13.816;2023-02-18T05:11:06;101317.47;;;21.49;48.15
17254;BME280;32542;52.832;13.816;2023-02-18T05:14:09;101320.13;;;21.49;48.18
17254;BME280;32542;52.832;13.816;2023-02-18T05:17:12;101315.75;;;21.48;48.01
17254;BME280;32542;52.832;13.816;2023-02-18T05:20:15;101316.59;;;21.48;48.05
17254;BME280;32542;52.832;13.816;2023-02-18T05:23:18;101314.81;;;21.49;48.12
17254;BME280;32542;52.832;13.816;2023-02-18T05:26:23;101322.81;;;21.49;48.05
17254;BME280;32542;52.832;13.816;2023-02-18T05:29:26;101339.66;;;21.49;48.04
17254;BME280;32542;52.832;13.816;2023-02-18T05:32:29;101333.47;;;21.49;48.05
17254;BME280;32542;52.832;13.816;2023-02-18T05:35:32;101328.13;;;21.49;48.08
17254;BME280;32542;52.832;13.816;2023-02-18T05:38:35;101335.22;;;21.50;47.96
17254;BME280;32542;52.832;13.816;2023-02-18T05:41:39;101328.06;;;21.50;47.99
17254;BME280;32542;52.832;13.816;2023-02-18T05:44:42;101335.22;;;21.50;47.94
17254;BME280;32542;52.832;13.816;2023-02-18T05:47:45;101330.72;;;21.50;48.06
17254;BME280;32542;52.832;13.816;2023-02-18T05:50:48;101323.59;;;21.51;48.05
17254;BME280;32542;52.832;13.816;2023-02-18T05:53:54;101331.59;;;21.51;47.94
17254;BME280;32542;52.832;13.816;2023-02-18T05:56:58;101329.88;;;21.50;47.84
17254;BME280;32542;52.832;13.816;2023-02-18T06:00:02;101328.06;;;21.50;47.94
17254;BME280;32542;52.832;13.816;2023-02-18T06:03:05;101315.59;;;21.51;48.00
17254;BME280;32542;52.832;13.816;2023-02-18T06:06:08;101314.72;;;21.50;47.90
17254;BME280;32542;52.832;13.816;2023-02-18T06:09:12;101313.91;;;21.50;47.99
17254;BME280;32542;52.832;13.816;2023-02-18T06:12:16;101317.41;;;21.50;47.99
17254;BME280;32542;52.832;13.816;2023-02-18T06:15:19;101319.22;;;21.50;47.92
17254;BME280;32542;52.832;13.816;2023-02-18T06:18:22;101313.03;;;21.49;48.00
17254;BME280;32542;52.832;13.816;2023-02-18T06:21:26;101310.44;;;21.48;47.95
17254;BME280;32542;52.832;13.816;2023-02-18T06:24:29;101313.09;;;21.48;47.98
17254;BME280;32542;52.832;13.816;2023-02-18T06:27:33;101308.69;;;21.47;47.95
17254;BME280;32542;52.832;13.816;2023-02-18T06:30:36;101313.13;;;21.46;48.00
17254;BME280;32542;52.832;13.816;2023-02-18T06:33:39;101312.28;;;21.46;48.04
17254;BME280;32542;52.832;13.816;2023-02-18T06:36:42;101301.63;;;21.46;47.99
17254;BME280;32542;52.832;13.816;2023-02-18T06:39:45;101288.31;;;21.46;48.03
17254;BME280;32542;52.832;13.816;2023-02-18T06:42:49;101292.69;;;21.47;48.23
17254;BME280;32542;52.832;13.816;2023-02-18T06:45:52;101291.78;;;21.48;48.36
17254;BME280;32542;52.832;13.816;2023-02-18T06:48:55;101290.81;;;21.49;48.52
17254;BME280;32542;52.832;13.816;2023-02-18T06:51:58;101301.50;;;21.49;48.65
17254;BME280;32542;52.832;13.816;2023-02-18T06:55:01;101289.13;;;21.48;48.74
17254;BME280;32542;52.832;13.816;2023-02-18T06:58:05;101289.13;;;21.48;48.72
17254;BME280;32542;52.832;13.816;2023-02-18T07:01:08;101292.69;;;21.47;48.71
17254;BME280;32542;52.832;13.816;2023-02-18T07:04:11;101290.97;;;21.46;48.77
17254;BME280;32542;52.832;13.816;2023-02-18T07:07:14;101300.75;;;21.45;48.74
17254;BME280;32542;52.832;13.816;2023-02-18T07:10:17;101296.31;;;21.46;48.69
17254;BME280;32542;52.832;13.816;2023-02-18T07:13:21;101292.78;;;21.45;48.81
17254;BME280;32542;52.832;13.816;2023-02-18T07:16:24;101299.00;;;21.44;48.65
17254;BME280;32542;52.832;13.816;2023-02-18T07:19:27;101305.22;;;21.45;48.80
17254;BME280;32542;52.832;13.816;2023-02-18T07:22:30;101289.22;;;21.45;48.69
17254;BME280;32542;52.832;13.816;2023-02-18T07:25:33;101299.88;;;21.45;48.71
17254;BME280;32542;52.832;13.816;2023-02-18T07:28:38;101296.31;;;21.46;48.63
17254;BME280;32542;52.832;13.816;2023-02-18T07:31:41;101286.50;;;21.46;48.68
17254;BME280;32542;52.832;13.816;2023-02-18T07:34:44;101303.34;;;21.47;48.64
17254;BME280;32542;52.832;13.816;2023-02-18T07:37:48;101290.97;;;21.46;48.57
17254;BME280;32542;52.832;13.816;2023-02-18T07:40:53;101290.97;;;21.46;48.69
17254;BME280;32542;52.832;13.816;2023-02-18T07:43:57;101269.66;;;21.46;48.58
17254;BME280;32542;52.832;13.816;2023-02-18T07:47:00;101275.00;;;21.46;48.71
17254;BME280;32542;52.832;13.816;2023-02-18T07:50:05;101271.38;;;21.47;47.91
17254;BME280;32542;52.832;13.816;2023-02-18T07:53:09;101280.97;;;21.31;43.88
17254;BME280;32542;52.832;13.816;2023-02-18T07:56:13;101276.91;;;21.21;43.96
17254;BME280;32542;52.832;13.816;2023-02-18T07:59:17;101284.09;;;21.19;44.24
17254;BME280;32542;52.832;13.816;2023-02-18T08:02:22;101282.22;;;21.22;44.72
17254;BME280;32542;52.832;13.816;2023-02-18T08:05:25;101279.34;;;21.27;44.96
17254;BME280;32542;52.832;13.816;2023-02-18T08:08:29;101267.50;;;21.34;45.08
17254;BME280;32542;52.832;13.816;2023-02-18T08:11:33;101259.38;;;21.37;45.15
17254;BME280;32542;52.832;13.816;2023-02-18T08:14:38;101253.91;;;21.40;44.95
17254;BME280;32542;52.832;13.816;2023-02-18T08:17:41;101255.53;;;21.44;44.91
17254;BME280;32542;52.832;13.816;2023-02-18T08:20:44;101245.53;;;21.49;45.22
17254;BME280;32542;52.832;13.816;2023-02-18T08:23:48;101242.66;;;21.53;45.11
17254;BME280;32542;52.832;13.816;2023-02-18T08:26:51;101241.41;;;21.62;45.14
17254;BME280;32542;52.832;13.816;2023-02-18T08:30:04;101226.88;;;21.69;45.06
17254;BME280;32542;52.832;13.816;2023-02-18T08:33:07;101230.19;;;21.74;45.08
17254;BME280;32542;52.832;13.816;2023-02-18T08:36:10;101236.19;;;21.79;45.19
17254;BME280;32542;52.832;13.816;2023-02-18T08:39:13;101225.44;;;21.82;45.15
17254;BME280;32542;52.832;13.816;2023-02-18T08:42:16;101224.38;;;21.86;45.05
17254;BME280;32542;52.832;13.816;2023-02-18T08:45:21;101223.41;;;21.87;45.21
17254;BME280;32542;52.832;13.816;2023-02-18T08:48:24;101210.97;;;21.88;45.22
17254;BME280;32542;52.832;13.816;2023-02-18T08:51:28;101213.63;;;21.88;45.31
17254;BME280;32542;52.832;13.816;2023-02-18T08:54:32;101215.41;;;21.87;45.36
17254;BME280;32542;52.832;13.816;2023-02-18T08:57:35;101205.69;;;21.86;45.52
17254;BME280;32542;52.832;13.816;2023-02-18T09:00:40;101201.28;;;21.85;45.72
17254;BME280;32542;52.832;13.816;2023-02-18T09:03:43;101205.81;;;21.83;45.62
17254;BME280;32542;52.832;13.816;2023-02-18T09:06:47;101211.19;;;21.82;45.70
17254;BME280;32542;52.832;13.816;2023-02-18T09:09:50;101199.75;;;21.80;45.77
17254;BME280;32542;52.832;13.816;2023-02-18T09:12:54;101197.13;;;21.78;46.00
17254;BME280;32542;52.832;13.816;2023-02-18T09:16:00;101194.47;;;21.78;46.04
17254;BME280;32542;52.832;13.816;2023-02-18T09:19:04;101189.28;;;21.75;46.09
17254;BME280;32542;52.832;13.816;2023-02-18T09:22:07;101187.53;;;21.74;46.04
17254;BME280;32542;52.832;13.816;2023-02-18T09:25:10;101175.09;;;21.74;46.24
17254;BME280;32542;52.832;13.816;2023-02-18T09:28:12;101180.50;;;21.73;46.23
17254;BME280;32542;52.832;13.816;2023-02-18T09:31:18;101183.16;;;21.73;46.28
17254;BME280;32542;52.832;13.816;2023-02-18T09:34:22;101183.16;;;21.73;46.29
17254;BME280;32542;52.832;13.816;2023-02-18T09:37:25;101168.09;;;21.72;46.32
17254;BME280;32542;52.832;13.816;2023-02-18T09:40:30;101167.16;;;21.73;46.49
17254;BME280;32542;52.832;13.816;2023-02-18T09:43:35;101164.50;;;21.73;46.58
17254;BME280;32542;52.832;13.816;2023-02-18T09:46:47;101151.16;;;21.73;46.42
17254;BME280;32542;52.832;13.816;2023-02-18T09:49:53;101152.88;;;21.74;46.65
17254;BME280;32542;52.832;13.816;2023-02-18T09:52:59;101147.56;;;21.74;46.79
17254;BME280;32542;52.832;13.816;2023-02-18T09:56:02;101143.09;;;21.74;46.89
17254;BME280;32542;52.832;13.816;2023-02-18T09:59:10;101156.44;;;21.74;46.86
17254;BME280;32542;52.832;13.816;2023-02-18T10:02:16;101139.50;;;21.75;46.82
17254;BME280;32542;52.832;13.816;2023-02-18T10:05:22;101116.34;;;21.76;46.92
17254;BME280;32542;52.832;13.816;2023-02-18T10:08:27;101112.78;;;21.77;47.00
17254;BME280;32542;52.832;13.816;2023-02-18T10:11:34;101125.16;;;21.78;47.02
17254;BME280;32542;52.832;13.816;2023-02-18T10:14:39;101118.91;;;21.79;47.00
17254;BME280;32542;52.832;13.816;2023-02-18T10:17:44;101106.34;;;21.81;47.11
17254;BME280;32542;52.832;13.816;2023-02-18T10:20:49;101095.69;;;21.81;46.98
17254;BME280;32542;52.832;13.816;2023-02-18T10:23:57;101085.91;;;21.82;47.21
17254;BME280;32542;52.832;13.816;2023-02-18T10:27:04;101079.66;;;21.83;47.05
17254;BME280;32542;52.832;13.816;2023-02-18T10:30:20;101082.28;;;21.84;47.09
17254;BME280;32542;52.832;13.816;2023-02-18T10:33:33;101086.66;;;21.85;46.97
17254;BME280;32542;52.832;13.816;2023-02-18T10:36:43;101061.72;;;21.86;46.97
17254;BME280;32542;52.832;13.816;2023-02-18T10:39:58;101051.91;;;21.87;47.00
17254;BME280;32542;52.832;13.816;2023-02-18T10:43:09;101033.19;;;21.88;47.09
17254;BME280;32542;52.832;13.816;2023-02-18T10:46:19;101025.97;;;21.90;46.99
17254;BME280;32542;52.832;13.816;2023-02-18T10:49:39;101004.69;;;21.89;47.09
17254;BME280;32542;52.832;13.816;2023-02-18T10:52:50;100989.56;;;21.89;47.11
17254;BME280;32542;52.832;13.816;2023-02-18T10:55:54;100990.44;;;21.90;47.07
17254;BME280;32542;52.832;13.816;2023-02-18T10:59:00;101001.03;;;21.91;47.08
17254;BME280;32542;52.832;13.816;2023-02-18T11:02:15;100990.31;;;21.93;47.01
17254;BME280;32542;52.832;13.816;2023-02-18T11:05:23;100993.81;;;21.93;47.10
17254;BME280;32542;52.832;13.816;2023-02-18T11:08:36;100982.22;;;21.94;47.08
17254;BME280;32542;52.832;13.816;2023-02-18T11:11:40;100985.75;;;21.95;47.11
17254;BME280;32542;52.832;13.816;2023-02-18T11:14:50;100982.13;;;21.96;47.21
17254;BME280;32542;52.832;13.816;2023-02-18T11:18:13;100983.00;;;21.96;47.10
17254;BME280;32542;52.832;13.816;2023-02-18T11:21:35;100979.38;;;21.97;47.05
17254;BME280;32542;52.832;13.816;2023-02-18T11:24:38;100974.94;;;21.98;47.08
17254;BME280;32542;52.832;13.816;2023-02-18T11:27:43;100956.34;;;21.96;47.13
17254;BME280;32542;52.832;13.816;2023-02-18T11:30:52;100961.69;;;21.96;47.20
17254;BME280;32542;52.832;13.816;2023-02-18T11:33:57;100943.94;;;21.95;47.00
17254;BME280;32542;52.832;13.816;2023-02-18T11:37:09;100947.47;;;21.96;47.09
17254;BME280;32542;52.832;13.816;2023-02-18T11:40:20;100927.94;;;21.95;46.96
17254;BME280;32542;52.832;13.816;2023-02-18T11:43:28;100914.59;;;21.95;46.96
17254;BME280;32542;52.832;13.816;2023-02-18T11:46:32;100901.28;;;21.95;46.94
17254;BME280;32542;52.832;13.816;2023-02-18T11:49:35;100897.69;;;21.96;46.95
17254;BME280;32542;52.832;13.816;2023-02-18T11:52:41;100893.22;;;21.97;46.89
17254;BME280;32542;52.832;13.816;2023-02-18T11:55:53;100876.34;;;21.96;46.92
17254;BME280;32542;52.832;13.816;2023-02-18T11:58:57;100870.06;;;21.97;46.89
17254;BME280;32542;52.832;13.816;2023-02-18T12:02:11;100861.22;;;21.97;46.95
17254;BME280;32542;52.832;13.816;2023-02-18T12:05:25;100863.94;;;21.95;46.84
17254;BME280;32542;52.832;13.816;2023-02-18T12:08:34;100847.94;;;21.95;46.97
17254;BME280;32542;52.832;13.816;2023-02-18T12:11:43;100843.50;;;21.96;46.90
17254;BME280;32542;52.832;13.816;2023-02-18T12:14:47;100837.28;;;21.95;46.85
17254;BME280;32542;52.832;13.816;2023-02-18T12:18:14;100832.91;;;21.94;46.97
17254;BME280;32542;52.832;13.816;2023-02-18T12:21:40;100803.56;;;21.94;46.96
17254;BME280;32542;52.832;13.816;2023-02-18T12:24:57;100827.50;;;21.96;46.96
17254;BME280;32542;52.832;13.816;2023-02-18T12:28:17;100805.28;;;21.95;47.20
17254;BME280;32542;52.832;13.816;2023-02-18T12:31:39;100823.03;;;21.96;47.04
17254;BME280;32542;52.832;13.816;2023-02-18T12:34:59;100763.50;;;21.96;47.04
17254;BME280;32542;52.832;13.816;2023-02-18T12:45:29;100767.97;;;21.95;47.36
17254;BME280;32542;52.832;13.816;2023-02-18T12:48:48;100732.38;;;21.96;47.33
17254;BME280;32542;52.832;13.816;2023-02-18T12:52:05;100751.03;;;21.96;47.23
17254;BME280;32542;52.832;13.816;2023-02-18T12:55:26;100739.50;;;21.96;47.18
17254;BME280;32542;52.832;13.816;2023-02-18T12:58:42;100720.84;;;21.96;47.12
17254;BME280;32542;52.832;13.816;2023-02-18T13:01:57;100697.81;;;21.95;47.22
17254;BME280;32542;52.832;13.816;2023-02-18T13:05:06;100717.31;;;21.95;47.12
17254;BME280;32542;52.832;13.816;2023-02-18T13:08:27;100699.50;;;21.96;47.10
17254;BME280;32542;52.832;13.816;2023-02-18T13:11:39;100692.47;;;21.95;47.07
17254;BME280;32542;52.832;13.816;2023-02-18T13:14:48;100697.81;;;21.95;47.15
17254;BME280;32542;52.832;13.816;2023-02-18T13:18:00;100687.97;;;21.95;47.18
17254;BME280;32542;52.832;13.816;2023-02-18T13:21:06;100678.25;;;21.94;47.07
17254;BME280;32542;52.832;13.816;2023-02-18T13:24:12;100685.41;;;21.94;47.12
17254;BME280;32542;52.832;13.816;2023-02-18T13:27:23;100645.41;;;21.94;47.05
17254;BME280;32542;52.832;13.816;2023-02-18T13:30:33;100680.94;;;21.94;47.02
17254;BME280;32542;52.832;13.816;2023-02-18T13:33:43;100688.16;;;21.92;47.15
17254;BME280;32542;52.832;13.816;2023-02-18T13:36:57;100686.34;;;21.93;47.12
17254;BME280;32542;52.832;13.816;2023-02-18T13:40:08;100678.34;;;21.93;47.13
17254;BME280;32542;52.832;13.816;2023-02-18T13:43:18;100666.81;;;21.92;47.18
17254;BME280;32542;52.832;13.816;2023-02-18T13:46:23;100684.63;;;21.92;47.29
17254;BME280;32542;52.832;13.816;2023-02-18T13:49:32;100666.81;;;21.92;47.27
17254;BME280;32542;52.832;13.816;2023-02-18T13:52:36;100657.97;;;21.92;47.40
17254;BME280;32542;52.832;13.816;2023-02-18T13:55:40;100641.03;;;21.93;47.32
17254;BME280;32542;52.832;13.816;2023-02-18T13:58:49;100640.16;;;21.92;47.26
17254;BME280;32542;52.832;13.816;2023-02-18T14:01:54;100645.50;;;21.92;47.27
17254;BME280;32542;52.832;13.816;2023-02-18T14:05:14;100635.69;;;21.93;47.33
17254;BME280;32542;52.832;13.816;2023-02-18T14:08:30;100626.84;;;21.92;47.37
17254;BME280;32542;52.832;13.816;2023-02-18T14:11:39;100652.53;;;21.93;47.54
17254;BME280;32542;52.832;13.816;2023-02-18T14:14:42;100638.28;;;21.94;47.64
17254;BME280;32542;52.832;13.816;2023-02-18T14:17:48;100648.94;;;21.94;47.61
17254;BME280;32542;52.832;13.816;2023-02-18T14:21:03;100640.84;;;21.96;47.48
17254;BME280;32542;52.832;13.816;2023-02-18T14:24:10;100645.25;;;21.97;47.67
17254;BME280;32542;52.832;13.816;2023-02-18T14:27:15;100639.81;;;21.98;47.67
17254;BME280;32542;52.832;13.816;2023-02-18T14:30:24;100652.19;;;21.99;47.66
17254;BME280;32542;52.832;13.816;2023-02-18T14:33:31;100654.81;;;22.01;47.57
17254;BME280;32542;52.832;13.816;2023-02-18T14:36:40;100677.84;;;22.02;47.79
17254;BME280;32542;52.832;13.816;2023-02-18T14:39:56;100701.84;;;22.02;47.67
17254;BME280;32542;52.832;13.816;2023-02-18T14:43:10;100671.66;;;22.01;47.66
17254;BME280;32542;52.832;13.816;2023-02-18T14:46:23;100678.81;;;22.01;47.69
17254;BME280;32542;52.832;13.816;2023-02-18T14:49:41;100678.84;;;21.99;47.90
17254;BME280;32542;52.832;13.816;2023-02-18T14:52:48;100692.19;;;21.99;47.80
17254;BME280;32542;52.832;13.816;2023-02-18T14:55:54;100688.69;;;21.99;47.88
17254;BME280;32542;52.832;13.816;2023-02-18T14:59:01;100692.19;;;21.99;48.15
17254;BME280;32542;52.832;13.816;2023-02-18T15:02:15;100705.53;;;21.99;48.04
17254;BME280;32542;52.832;13.816;2023-02-18T15:05:23;100719.66;;;22.01;48.22
17254;BME280;32542;52.832;13.816;2023-02-18T15:08:35;100734.78;;;22.01;48.14
17254;BME280;32542;52.832;13.816;2023-02-18T15:11:43;100715.25;;;22.00;48.38
17254;BME280;32542;52.832;13.816;2023-02-18T15:14:49;100732.13;;;22.01;48.24
17254;BME280;32542;52.832;13.816;2023-02-18T15:17:52;100719.66;;;22.01;48.30
17254;BME280;32542;52.832;13.816;2023-02-18T15:20:59;100749.00;;;22.01;48.30
17254;BME280;32542;52.832;13.816;2023-02-18T15:24:06;100748.03;;;22.02;48.38
17254;BME280;32542;52.832;13.816;2023-02-18T15:27:12;100746.31;;;22.01;48.18
17254;BME280;32542;52.832;13.816;2023-02-18T15:30:19;100749.78;;;22.03;48.43
17254;BME280;32542;52.832;13.816;2023-02-18T15:33:23;100748.91;;;22.03;48.18
17254;BME280;32542;52.832;13.816;2023-02-18T15:36:28;100753.38;;;22.02;48.09
17254;BME280;32542;52.832;13.816;2023-02-18T15:39:31;100764.03;;;22.02;48.12
17254;BME280;32542;52.832;13.816;2023-02-18T15:42:39;100763.09;;;22.03;48.42
17254;BME280;32542;52.832;13.816;2023-02-18T15:45:47;100778.16;;;22.04;48.75
17254;BME280;32542;52.832;13.816;2023-02-18T15:48:52;100787.09;;;22.03;48.98
17254;BME280;32542;52.832;13.816;2023-02-18T15:51:59;100799.38;;;22.06;49.09
17254;BME280;32542;52.832;13.816;2023-02-18T15:55:10;100802.94;;;22.06;49.28
17254;BME280;32542;52.832;13.816;2023-02-18T15:58:16;100808.25;;;22.06;49.11
17254;BME280;32542;52.832;13.816;2023-02-18T16:01:26;100813.59;;;22.06;49.03
17254;BME280;32542;52.832;13.816;2023-02-18T16:04:32;100823.34;;;22.07;48.99
17254;BME280;32542;52.832;13.816;2023-02-18T16:07:48;100837.59;;;22.06;49.03
17254;BME280;32542;52.832;13.816;2023-02-18T16:10:54;100840.25;;;22.06;48.87
17254;BME280;32542;52.832;13.816;2023-02-18T16:13:58;100850.94;;;22.06;48.91
17254;BME280;32542;52.832;13.816;2023-02-18T16:17:08;100866.94;;;22.06;48.98